sensor_id;sensor_type;location;lat;lon;timestamp;P1;durP1;ratioP1;P2;durP2;ratioP2
15474;SDS011;7839;50.462;9.678;2023-09-30T00:00:06;2.47;;;1.40;;
15474;SDS011;7839;50.462;9.678;2023-09-30T00:06:48;3.57;;;1.80;;
15474;SDS011;7839;50.462;9.678;2023-09-30T00:13:29;3.63;;;1.67;;
15474;SDS011;7839;50.462;9.678;2023-09-30T00:20:09;1.43;;;1.33;;
15474;SDS011;7839;50.462;9.678;2023-09-30T00:26:50;3.37;;;1.60;;
15474;SDS011;7839;50.462;9.678;2023-09-30T00:33:30;4.00;;;1.63;;
15474;SDS011;7839;50.462;9.678;2023-09-30T00:40:11;5.03;;;2.00;;
15474;SDS011;7839;50.462;9.678;2023-09-30T00:46:52;2.97;;;1.70;;
15474;SDS011;7839;50.462;9.678;2023-09-30T00:53:32;4.07;;;1.57;;
15474;SDS011;7839;50.462;9.678;2023-09-30T01:00:13;5.87;;;2.37;;
15474;SDS011;7839;50.462;9.678;2023-09-30T01:06:53;7.13;;;1.97;;
15474;SDS011;7839;50.462;9.678;2023-09-30T01:13:34;3.93;;;1.90;;
15474;SDS011;7839;50.462;9.678;2023-09-30T01:20:15;2.80;;;1.57;;
15474;SDS011;7839;50.462;9.678;2023-09-30T01:27:02;7.30;;;1.70;;
15474;SDS011;7839;50.462;9.678;2023-09-30T01:33:42;3.77;;;1.83;;
15474;SDS011;7839;50.462;9.678;2023-09-30T01:40:22;5.20;;;1.83;;
15474;SDS011;7839;50.462;9.678;2023-09-30T01:47:03;3.60;;;1.73;;
15474;SDS011;7839;50.462;9.678;2023-09-30T01:53:43;7.77;;;2.20;;
15474;SDS011;7839;50.462;9.678;2023-09-30T02:00:23;3.47;;;1.80;;
15474;SDS011;7839;50.462;9.678;2023-09-30T02:07:03;5.60;;;2.00;;
15474;SDS011;7839;50.462;9.678;2023-09-30T02:13:43;3.10;;;2.00;;
15474;SDS011;7839;50.462;9.678;2023-09-30T02:20:24;7.60;;;1.90;;
15474;SDS011;7839;50.462;9.678;2023-09-30T02:27:06;4.00;;;1.80;;
15474;SDS011;7839;50.462;9.678;2023-09-30T02:33:46;3.60;;;1.63;;
15474;SDS011;7839;50.462;9.678;2023-09-30T02:40:26;4.83;;;2.43;;
15474;SDS011;7839;50.462;9.678;2023-09-30T02:47:07;2.57;;;1.83;;
15474;SDS011;7839;50.462;9.678;2023-09-30T02:53:48;1.63;;;1.37;;
15474;SDS011;7839;50.462;9.678;2023-09-30T03:00:28;1.90;;;1.43;;
15474;SDS011;7839;50.462;9.678;2023-09-30T03:07:15;2.80;;;1.60;;
15474;SDS011;7839;50.462;9.678;2023-09-30T03:13:56;6.77;;;2.00;;
15474;SDS011;7839;50.462;9.678;2023-09-30T03:20:36;5.20;;;2.03;;
15474;SDS011;7839;50.462;9.678;2023-09-30T03:27:20;2.67;;;1.70;;
15474;SDS011;7839;50.462;9.678;2023-09-30T03:34:05;6.47;;;1.97;;
15474;SDS011;7839;50.462;9.678;2023-09-30T03:40:45;3.77;;;1.57;;
15474;SDS011;7839;50.462;9.678;2023-09-30T03:47:27;2.50;;;1.60;;
15474;SDS011;7839;50.462;9.678;2023-09-30T03:54:07;2.67;;;1.77;;
15474;SDS011;7839;50.462;9.678;2023-09-30T04:00:48;1.88;;;1.65;;
15474;SDS011;7839;50.462;9.678;2023-09-30T04:07:29;6.20;;;2.33;;
15474;SDS011;7839;50.462;9.678;2023-09-30T04:14:09;2.00;;;1.75;;
15474;SDS011;7839;50.462;9.678;2023-09-30T04:20:50;1.40;;;1.25;;
15474;SDS011;7839;50.462;9.678;2023-09-30T04:27:31;3.10;;;1.70;;
15474;SDS011;7839;50.462;9.678;2023-09-30T04:34:11;1.70;;;1.27;;
15474;SDS011;7839;50.462;9.678;2023-09-30T04:40:52;1.43;;;1.30;;
15474;SDS011;7839;50.462;9.678;2023-09-30T04:47:34;2.60;;;1.50;;
15474;SDS011;7839;50.462;9.678;2023-09-30T04:54:14;1.85;;;1.63;;
15474;SDS011;7839;50.462;9.678;2023-09-30T05:00:54;1.55;;;1.42;;
15474;SDS011;7839;50.462;9.678;2023-09-30T05:07:34;1.63;;;1.40;;
15474;SDS011;7839;50.462;9.678;2023-09-30T05:14:15;1.23;;;1.13;;
15474;SDS011;7839;50.462;9.678;2023-09-30T05:20:56;1.55;;;1.08;;
15474;SDS011;7839;50.462;9.678;2023-09-30T05:27:36;1.40;;;1.30;;
15474;SDS011;7839;50.462;9.678;2023-09-30T05:34:17;1.83;;;1.25;;
15474;SDS011;7839;50.462;9.678;2023-09-30T05:40:57;1.23;;;1.13;;
15474;SDS011;7839;50.462;9.678;2023-09-30T05:47:39;1.05;;;1.00;;
15474;SDS011;7839;50.462;9.678;2023-09-30T05:54:19;1.38;;;1.10;;
15474;SDS011;7839;50.462;9.678;2023-09-30T06:00:59;1.48;;;1.33;;
15474;SDS011;7839;50.462;9.678;2023-09-30T06:07:40;1.30;;;0.98;;
15474;SDS011;7839;50.462;9.678;2023-09-30T06:14:21;1.23;;;1.13;;
15474;SDS011;7839;50.462;9.678;2023-09-30T06:21:01;1.13;;;1.02;;
15474;SDS011;7839;50.462;9.678;2023-09-30T06:27:44;0.95;;;0.95;;
15474;SDS011;7839;50.462;9.678;2023-09-30T06:34:24;1.42;;;1.20;;
15474;SDS011;7839;50.462;9.678;2023-09-30T06:41:05;1.30;;;1.10;;
15474;SDS011;7839;50.462;9.678;2023-09-30T06:47:45;1.30;;;1.13;;
15474;SDS011;7839;50.462;9.678;2023-09-30T06:54:26;1.10;;;0.80;;
15474;SDS011;7839;50.462;9.678;2023-09-30T07:01:06;1.05;;;0.95;;
15474;SDS011;7839;50.462;9.678;2023-09-30T07:07:46;1.00;;;1.00;;
15474;SDS011;7839;50.462;9.678;2023-09-30T07:14:26;1.20;;;1.05;;
15474;SDS011;7839;50.462;9.678;2023-09-30T07:21:07;0.93;;;0.77;;
15474;SDS011;7839;50.462;9.678;2023-09-30T07:27:47;1.42;;;1.08;;
15474;SDS011;7839;50.462;9.678;2023-09-30T07:34:27;0.80;;;0.80;;
15474;SDS011;7839;50.462;9.678;2023-09-30T07:41:08;0.93;;;0.70;;
15474;SDS011;7839;50.462;9.678;2023-09-30T07:47:50;1.30;;;1.20;;
15474;SDS011;7839;50.462;9.678;2023-09-30T07:54:31;1.08;;;0.95;;
15474;SDS011;7839;50.462;9.678;2023-09-30T08:01:11;8.35;;;2.75;;
15474;SDS011;7839;50.462;9.678;2023-09-30T08:07:51;0.80;;;0.80;;
15474;SDS011;7839;50.462;9.678;2023-09-30T08:14:31;1.10;;;0.95;;
15474;SDS011;7839;50.462;9.678;2023-09-30T08:21:12;2.95;;;1.08;;
15474;SDS011;7839;50.462;9.678;2023-09-30T08:27:52;1.15;;;1.00;;
15474;SDS011;7839;50.462;9.678;2023-09-30T08:34:33;1.00;;;0.90;;
15474;SDS011;7839;50.462;9.678;2023-09-30T08:41:24;5.40;;;2.40;;
15474;SDS011;7839;50.462;9.678;2023-09-30T08:48:08;1.30;;;1.15;;
15474;SDS011;7839;50.462;9.678;2023-09-30T08:54:50;1.38;;;1.20;;
15474;SDS011;7839;50.462;9.678;2023-09-30T09:01:30;1.50;;;1.15;;
15474;SDS011;7839;50.462;9.678;2023-09-30T09:08:10;2.15;;;1.35;;
15474;SDS011;7839;50.462;9.678;2023-09-30T09:14:51;1.98;;;1.20;;
15474;SDS011;7839;50.462;9.678;2023-09-30T09:21:31;3.55;;;1.60;;
15474;SDS011;7839;50.462;9.678;2023-09-30T09:28:11;6.50;;;3.20;;
15474;SDS011;7839;50.462;9.678;2023-09-30T09:34:59;5.63;;;2.80;;
15474;SDS011;7839;50.462;9.678;2023-09-30T09:41:49;10.03;;;2.37;;
15474;SDS011;7839;50.462;9.678;2023-09-30T09:48:31;4.37;;;1.67;;
15474;SDS011;7839;50.462;9.678;2023-09-30T09:55:11;3.53;;;1.90;;
15474;SDS011;7839;50.462;9.678;2023-09-30T10:01:51;2.03;;;1.33;;
15474;SDS011;7839;50.462;9.678;2023-09-30T10:08:40;2.10;;;1.50;;
15474;SDS011;7839;50.462;9.678;2023-09-30T10:29:05;2.13;;;1.20;;
15474;SDS011;7839;50.462;9.678;2023-09-30T10:35:48;2.65;;;1.50;;
15474;SDS011;7839;50.462;9.678;2023-09-30T10:42:47;1.52;;;1.20;;
15474;SDS011;7839;50.462;9.678;2023-09-30T10:49:30;1.35;;;1.10;;
15474;SDS011;7839;50.462;9.678;2023-09-30T10:56:12;2.00;;;1.30;;
15474;SDS011;7839;50.462;9.678;2023-09-30T11:02:52;1.75;;;1.23;;
15474;SDS011;7839;50.462;9.678;2023-09-30T11:09:33;0.93;;;0.90;;
15474;SDS011;7839;50.462;9.678;2023-09-30T11:16:13;1.23;;;1.15;;
15474;SDS011;7839;50.462;9.678;2023-09-30T11:22:53;1.45;;;0.98;;
15474;SDS011;7839;50.462;9.678;2023-09-30T11:29:34;1.73;;;1.10;;
15474;SDS011;7839;50.462;9.678;2023-09-30T11:36:14;1.63;;;1.20;;
15474;SDS011;7839;50.462;9.678;2023-09-30T11:43:07;1.60;;;1.10;;
15474;SDS011;7839;50.462;9.678;2023-09-30T11:49:52;1.85;;;1.15;;
15474;SDS011;7839;50.462;9.678;2023-09-30T11:56:33;2.30;;;1.48;;
15474;SDS011;7839;50.462;9.678;2023-09-30T12:03:14;1.40;;;1.10;;
15474;SDS011;7839;50.462;9.678;2023-09-30T12:09:54;5.68;;;2.35;;
15474;SDS011;7839;50.462;9.678;2023-09-30T12:16:34;1.92;;;1.13;;
15474;SDS011;7839;50.462;9.678;2023-09-30T12:23:14;6.40;;;2.58;;
15474;SDS011;7839;50.462;9.678;2023-09-30T12:29:55;7.00;;;2.60;;
15474;SDS011;7839;50.462;9.678;2023-09-30T12:36:35;5.60;;;2.20;;
15474;SDS011;7839;50.462;9.678;2023-09-30T12:43:15;3.80;;;1.50;;
15474;SDS011;7839;50.462;9.678;2023-09-30T12:49:55;5.83;;;2.33;;
15474;SDS011;7839;50.462;9.678;2023-09-30T12:56:35;6.20;;;2.33;;
15474;SDS011;7839;50.462;9.678;2023-09-30T13:03:16;2.20;;;1.17;;
15474;SDS011;7839;50.462;9.678;2023-09-30T13:09:56;1.35;;;1.10;;
15474;SDS011;7839;50.462;9.678;2023-09-30T13:16:36;1.95;;;1.45;;
15474;SDS011;7839;50.462;9.678;2023-09-30T13:23:17;2.05;;;1.15;;
15474;SDS011;7839;50.462;9.678;2023-09-30T13:29:58;1.38;;;1.17;;
15474;SDS011;7839;50.462;9.678;2023-09-30T13:36:39;3.65;;;1.52;;
15474;SDS011;7839;50.462;9.678;2023-09-30T13:43:19;3.60;;;1.70;;
15474;SDS011;7839;50.462;9.678;2023-09-30T13:50:00;3.78;;;1.60;;
15474;SDS011;7839;50.462;9.678;2023-09-30T13:56:40;1.33;;;1.13;;
15474;SDS011;7839;50.462;9.678;2023-09-30T14:03:20;1.97;;;1.30;;
15474;SDS011;7839;50.462;9.678;2023-09-30T14:10:01;1.95;;;1.10;;
15474;SDS011;7839;50.462;9.678;2023-09-30T14:16:41;2.95;;;1.80;;
15474;SDS011;7839;50.462;9.678;2023-09-30T14:23:22;1.27;;;1.00;;
15474;SDS011;7839;50.462;9.678;2023-09-30T14:30:03;1.95;;;1.20;;
15474;SDS011;7839;50.462;9.678;2023-09-30T14:36:44;2.03;;;1.50;;
15474;SDS011;7839;50.462;9.678;2023-09-30T14:43:24;2.70;;;2.00;;
15474;SDS011;7839;50.462;9.678;2023-09-30T14:50:08;1.10;;;1.00;;
15474;SDS011;7839;50.462;9.678;2023-09-30T14:56:48;1.33;;;1.02;;
15474;SDS011;7839;50.462;9.678;2023-09-30T15:03:29;1.67;;;1.00;;
15474;SDS011;7839;50.462;9.678;2023-09-30T15:10:10;7.57;;;2.13;;
15474;SDS011;7839;50.462;9.678;2023-09-30T15:16:50;1.98;;;1.40;;
15474;SDS011;7839;50.462;9.678;2023-09-30T15:23:30;1.38;;;1.10;;
15474;SDS011;7839;50.462;9.678;2023-09-30T15:30:12;1.20;;;1.02;;
15474;SDS011;7839;50.462;9.678;2023-09-30T15:36:53;1.40;;;1.30;;
15474;SDS011;7839;50.462;9.678;2023-09-30T15:43:34;1.40;;;0.98;;
15474;SDS011;7839;50.462;9.678;2023-09-30T15:50:15;1.38;;;1.02;;
15474;SDS011;7839;50.462;9.678;2023-09-30T15:56:55;1.35;;;1.25;;
15474;SDS011;7839;50.462;9.678;2023-09-30T16:03:36;1.63;;;1.23;;
15474;SDS011;7839;50.462;9.678;2023-09-30T16:10:16;2.95;;;1.23;;
15474;SDS011;7839;50.462;9.678;2023-09-30T16:16:56;1.33;;;1.13;;
15474;SDS011;7839;50.462;9.678;2023-09-30T16:23:36;1.60;;;1.48;;
15474;SDS011;7839;50.462;9.678;2023-09-30T16:30:17;2.03;;;1.30;;
15474;SDS011;7839;50.462;9.678;2023-09-30T16:36:57;1.60;;;1.33;;
15474;SDS011;7839;50.462;9.678;2023-09-30T16:43:37;1.40;;;1.13;;
15474;SDS011;7839;50.462;9.678;2023-09-30T16:50:19;1.17;;;0.98;;
15474;SDS011;7839;50.462;9.678;2023-09-30T16:56:59;1.42;;;1.33;;
15474;SDS011;7839;50.462;9.678;2023-09-30T17:03:39;2.08;;;1.40;;
15474;SDS011;7839;50.462;9.678;2023-09-30T17:10:21;1.35;;;1.08;;
15474;SDS011;7839;50.462;9.678;2023-09-30T17:17:04;1.40;;;1.27;;
15474;SDS011;7839;50.462;9.678;2023-09-30T17:23:44;1.33;;;1.23;;
15474;SDS011;7839;50.462;9.678;2023-09-30T17:30:25;2.35;;;1.40;;
15474;SDS011;7839;50.462;9.678;2023-09-30T17:37:05;2.08;;;1.25;;
15474;SDS011;7839;50.462;9.678;2023-09-30T17:43:46;1.67;;;1.30;;
15474;SDS011;7839;50.462;9.678;2023-09-30T17:50:26;1.98;;;1.33;;
15474;SDS011;7839;50.462;9.678;2023-09-30T17:57:06;2.47;;;1.38;;
15474;SDS011;7839;50.462;9.678;2023-09-30T18:03:47;1.48;;;1.38;;
15474;SDS011;7839;50.462;9.678;2023-09-30T18:10:27;1.77;;;1.42;;
15474;SDS011;7839;50.462;9.678;2023-09-30T18:17:07;2.15;;;1.40;;
15474;SDS011;7839;50.462;9.678;2023-09-30T18:23:48;1.33;;;1.10;;
15474;SDS011;7839;50.462;9.678;2023-09-30T18:30:28;1.35;;;1.20;;
15474;SDS011;7839;50.462;9.678;2023-09-30T18:37:08;1.20;;;0.98;;
15474;SDS011;7839;50.462;9.678;2023-09-30T18:43:49;0.90;;;0.80;;
15474;SDS011;7839;50.462;9.678;2023-09-30T18:50:29;0.90;;;0.80;;
15474;SDS011;7839;50.462;9.678;2023-09-30T18:57:09;1.25;;;0.93;;
15474;SDS011;7839;50.462;9.678;2023-09-30T19:03:49;1.02;;;1.02;;
15474;SDS011;7839;50.462;9.678;2023-09-30T19:10:29;0.90;;;0.90;;
15474;SDS011;7839;50.462;9.678;2023-09-30T19:17:10;1.30;;;1.13;;
15474;SDS011;7839;50.462;9.678;2023-09-30T19:23:50;0.80;;;0.80;;
15474;SDS011;7839;50.462;9.678;2023-09-30T19:30:31;1.25;;;0.85;;
15474;SDS011;7839;50.462;9.678;2023-09-30T19:37:11;1.55;;;0.80;;
15474;SDS011;7839;50.462;9.678;2023-09-30T19:43:52;1.10;;;0.77;;
15474;SDS011;7839;50.462;9.678;2023-09-30T19:50:32;0.80;;;0.80;;
15474;SDS011;7839;50.462;9.678;2023-09-30T19:57:13;0.98;;;0.88;;
15474;SDS011;7839;50.462;9.678;2023-09-30T20:03:53;1.00;;;0.90;;
15474;SDS011;7839;50.462;9.678;2023-09-30T20:10:34;0.60;;;0.60;;
15474;SDS011;7839;50.462;9.678;2023-09-30T20:17:14;1.23;;;0.70;;
15474;SDS011;7839;50.462;9.678;2023-09-30T20:23:55;0.82;;;0.70;;
15474;SDS011;7839;50.462;9.678;2023-09-30T20:30:35;0.60;;;0.60;;
15474;SDS011;7839;50.462;9.678;2023-09-30T20:37:16;0.88;;;0.70;;
15474;SDS011;7839;50.462;9.678;2023-09-30T20:43:56;0.82;;;0.70;;
15474;SDS011;7839;50.462;9.678;2023-09-30T20:50:36;0.63;;;0.63;;
15474;SDS011;7839;50.462;9.678;2023-09-30T20:57:16;0.82;;;0.80;;
15474;SDS011;7839;50.462;9.678;2023-09-30T21:03:57;0.52;;;0.50;;
15474;SDS011;7839;50.462;9.678;2023-09-30T21:10:38;0.70;;;0.70;;
15474;SDS011;7839;50.462;9.678;2023-09-30T21:17:18;0.63;;;0.63;;
15474;SDS011;7839;50.462;9.678;2023-09-30T21:24:01;0.60;;;0.60;;
15474;SDS011;7839;50.462;9.678;2023-09-30T21:30:42;0.60;;;0.60;;
15474;SDS011;7839;50.462;9.678;2023-09-30T21:37:22;0.60;;;0.60;;
15474;SDS011;7839;50.462;9.678;2023-09-30T21:44:03;0.45;;;0.45;;
15474;SDS011;7839;50.462;9.678;2023-09-30T21:50:43;0.50;;;0.50;;
15474;SDS011;7839;50.462;9.678;2023-09-30T21:57:23;0.57;;;0.57;;
15474;SDS011;7839;50.462;9.678;2023-09-30T22:04:03;0.43;;;0.40;;
15474;SDS011;7839;50.462;9.678;2023-09-30T22:10:45;0.30;;;0.30;;
15474;SDS011;7839;50.462;9.678;2023-09-30T22:17:25;0.60;;;0.60;;
15474;SDS011;7839;50.462;9.678;2023-09-30T22:24:06;0.60;;;0.60;;
15474;SDS011;7839;50.462;9.678;2023-09-30T22:30:46;0.70;;;0.70;;
15474;SDS011;7839;50.462;9.678;2023-09-30T22:37:26;1.15;;;0.70;;
15474;SDS011;7839;50.462;9.678;2023-09-30T22:44:07;0.60;;;0.60;;
15474;SDS011;7839;50.462;9.678;2023-09-30T22:50:47;0.30;;;0.30;;
15474;SDS011;7839;50.462;9.678;2023-09-30T22:57:29;0.40;;;0.40;;
15474;SDS011;7839;50.462;9.678;2023-09-30T23:04:09;1.02;;;0.93;;
15474;SDS011;7839;50.462;9.678;2023-09-30T23:10:50;0.65;;;0.50;;
15474;SDS011;7839;50.462;9.678;2023-09-30T23:17:30;0.32;;;0.32;;
15474;SDS011;7839;50.462;9.678;2023-09-30T23:24:11;0.60;;;0.40;;
15474;SDS011;7839;50.462;9.678;2023-09-30T23:30:51;0.40;;;0.40;;
15474;SDS011;7839;50.462;9.678;2023-09-30T23:37:32;0.88;;;0.80;;
15474;SDS011;7839;50.462;9.678;2023-09-30T23:44:13;0.43;;;0.43;;
15474;SDS011;7839;50.462;9.678;2023-09-30T23:50:53;0.52;;;0.50;;
15474;SDS011;7839;50.462;9.678;2023-09-30T23:57:33;0.50;;;0.50;;
